Time;durP1;ratioP1;P1;durP2;ratioP2;P2;SDS_P1;SDS_P2;PMS_P1;PMS_P2;Temp;Humidity;BMP_temperature;BMP_pressure;BME280_temperature;BME280_humidity;BME280_pressure;Samples;Min_cycle;Max_cycle;Signal;HPM_P1;HPM_P2
2020/12/01 00:01:33;;;;;;;;;;;2.50;83.40;;;;;;5002966;28;20491;-47
2020/12/01 00:03:59;;;;;;;;;;;2.50;83.60;;;;;;4984994;28;19944;-45
2020/12/01 00:06:29;;;;;;;;;;;2.40;83.70;;;;;;5006082;28;20402;-46
2020/12/01 00:08:55;;;;;;;;;;;2.40;84.00;;;;;;5001264;28;20489;-46
2020/12/01 00:11:21;;;;;;;;;;;2.40;84.00;;;;;;4987624;28;19937;-46
2020/12/01 00:13:48;;;;;;;;;;;2.50;83.90;;;;;;5003841;28;19925;-46
2020/12/01 00:16:14;;;;;;;;;;;2.50;83.70;;;;;;4987114;28;19929;-47
2020/12/01 00:18:41;;;;;;;;;;;2.50;83.90;;;;;;4986602;28;19929;-46
2020/12/01 00:21:12;;;;;;;;;;;2.60;83.80;;;;;;5000641;28;19933;-46
2020/12/01 00:23:38;;;;;;;;;;;2.60;83.90;;;;;;5005060;28;20381;-47
2020/12/01 00:26:07;;;;;;;;;;;2.60;83.70;;;;;;5003684;28;19956;-44
2020/12/01 00:28:33;;;;;;;;;;;2.60;83.60;;;;;;4990092;28;20309;-46
2020/12/01 00:30:59;;;;;;;;;;;2.60;83.70;;;;;;4988047;28;19933;-43
2020/12/01 00:33:25;;;;;;;;;;;2.70;83.40;;;;;;5003252;28;20308;-47
2020/12/01 00:35:52;;;;;;;;;;;2.70;83.30;;;;;;4981335;28;19972;-45
2020/12/01 00:38:20;;;;;;;;;;;2.70;83.30;;;;;;5005480;28;19926;-45
2020/12/01 00:40:50;;;;;;;;;;;2.70;83.30;;;;;;4993781;28;19952;-46
2020/12/01 00:43:16;;;;;;;;;;;2.60;83.40;;;;;;5004701;28;19934;-46
2020/12/01 00:45:43;;;;;;;;;;;2.70;83.40;;;;;;5005129;28;19933;-47
2020/12/01 00:48:11;;;;;;;;;;;2.70;83.30;;;;;;5000708;28;19932;-46
2020/12/01 00:50:37;;;;;;;;;;;2.70;83.30;;;;;;5002166;28;19933;-46
2020/12/01 00:53:04;;;;;;;;;;;2.70;83.30;;;;;;5000291;28;19933;-45
2020/12/01 00:55:30;;;;;;;;;;;2.70;83.40;;;;;;5005513;28;19936;-47
2020/12/01 00:57:56;;;;;;;;;;;2.70;83.30;;;;;;5001323;28;19933;-46
2020/12/01 01:00:24;;;;;;;;;;;2.80;83.10;;;;;;4987577;28;19933;-46
2020/12/01 01:02:50;;;;;;;;;;;2.80;82.90;;;;;;4999261;28;19929;-47
2020/12/01 01:05:16;;;;;;;;;;;2.80;83.10;;;;;;5003959;28;19977;-46
2020/12/01 01:07:42;;;;;;;;;;;2.80;83.00;;;;;;4999291;28;19940;-44
2020/12/01 01:10:14;;;;;;;;;;;2.70;83.10;;;;;;5002480;28;19961;-46
2020/12/01 01:12:40;;;;;;;;;;;2.70;83.20;;;;;;5004965;28;19925;-46
2020/12/01 01:15:06;;;;;;;;;;;2.70;83.10;;;;;;4999602;28;19972;-47
2020/12/01 01:17:32;;;;;;;;;;;2.70;83.20;;;;;;4998606;28;19945;-46
2020/12/01 01:19:59;;;;;;;;;;;2.70;83.20;;;;;;5000952;28;19933;-46
2020/12/01 01:22:25;;;;;;;;;;;2.80;83.00;;;;;;4999063;28;19939;-46
2020/12/01 01:24:51;;;;;;;;;;;2.80;83.00;;;;;;5002680;28;20357;-46
2020/12/01 01:27:17;;;;;;;;;;;2.80;82.90;;;;;;5002813;28;19925;-47
2020/12/01 01:29:43;;;;;;;;;;;2.90;82.70;;;;;;5002998;28;19925;-47
2020/12/01 01:32:11;;;;;;;;;;;2.80;82.80;;;;;;4996631;28;22570;-46
2020/12/01 01:34:37;;;;;;;;;;;2.90;82.60;;;;;;5002938;28;19933;-45
2020/12/01 01:37:04;;;;;;;;;;;2.90;82.70;;;;;;4999946;28;19940;-46
2020/12/01 01:39:31;;;;;;;;;;;2.90;82.80;;;;;;5002167;28;19940;-47
2020/12/01 01:41:57;;;;;;;;;;;2.90;82.80;;;;;;4987376;28;19933;-47
2020/12/01 01:44:25;;;;;;;;;;;2.90;82.90;;;;;;4974394;28;20337;-45
2020/12/01 01:46:52;;;;;;;;;;;2.90;82.90;;;;;;5005714;28;19948;-46
2020/12/01 01:49:20;;;;;;;;;;;2.90;82.90;;;;;;4985904;28;19929;-45
2020/12/01 01:51:52;;;;;;;;;;;2.90;82.80;;;;;;5000297;28;19945;-45
2020/12/01 01:54:19;;;;;;;;;;;3.00;82.70;;;;;;5001342;28;20358;-45
2020/12/01 01:56:46;;;;;;;;;;;2.90;82.80;;;;;;5003436;28;19934;-45
2020/12/01 01:59:13;;;;;;;;;;;2.90;82.90;;;;;;5003134;28;19925;-45
2020/12/01 02:01:39;;;;;;;;;;;3.00;82.80;;;;;;5003139;28;19925;-44
2020/12/01 02:04:07;;;;;;;;;;;3.00;82.80;;;;;;4995661;28;19929;-45
2020/12/01 02:06:36;;;;;;;;;;;3.00;82.80;;;;;;4986012;28;19929;-45
2020/12/01 02:09:08;;;;;;;;;;;3.00;82.80;;;;;;5004971;28;19944;-47
2020/12/01 02:11:36;;;;;;;;;;;3.00;82.80;;;;;;4990651;28;20312;-45
2020/12/01 02:14:20;;;;;;;;;;;3.00;82.80;;;;;;5003721;28;19945;-45
2020/12/01 02:16:51;;;;;;;;;;;3.00;82.90;;;;;;5001013;28;19935;-45
2020/12/01 02:19:22;;;;;;;;;;;3.00;82.80;;;;;;5001558;28;20296;-46
2020/12/01 02:21:51;;;;;;;;;;;3.00;82.90;;;;;;5002376;28;19933;-47
2020/12/01 02:24:19;;;;;;;;;;;3.00;83.10;;;;;;5005373;28;19941;-47
2020/12/01 02:26:47;;;;;;;;;;;3.00;83.10;;;;;;4988046;28;19933;-47
2020/12/01 02:29:15;;;;;;;;;;;3.00;82.90;;;;;;5003633;28;20015;-47
2020/12/01 02:31:41;;;;;;;;;;;3.00;83.10;;;;;;5005692;28;19935;-45
2020/12/01 02:34:10;;;;;;;;;;;3.00;83.10;;;;;;4994011;28;20030;-47
2020/12/01 02:36:36;;;;;;;;;;;3.00;83.10;;;;;;5010479;28;20039;-46
2020/12/01 02:39:03;;;;;;;;;;;3.00;83.10;;;;;;4976304;28;19937;-46
2020/12/01 02:41:29;;;;;;;;;;;3.00;82.90;;;;;;5001201;28;19933;-45
2020/12/01 02:43:55;;;;;;;;;;;3.00;83.10;;;;;;4994610;28;19933;-45
2020/12/01 02:46:22;;;;;;;;;;;3.00;83.10;;;;;;4987761;28;19933;-45
2020/12/01 02:48:48;;;;;;;;;;;3.00;83.10;;;;;;5006659;28;19936;-46
2020/12/01 02:51:14;;;;;;;;;;;3.00;83.30;;;;;;5001866;28;19925;-45
2020/12/01 02:53:41;;;;;;;;;;;3.00;83.30;;;;;;5008891;28;19925;-46
2020/12/01 02:56:07;;;;;;;;;;;3.00;83.20;;;;;;5003513;28;19925;-46
2020/12/01 02:58:33;;;;;;;;;;;3.00;83.30;;;;;;5005466;28;20403;-45
2020/12/01 03:00:59;;;;;;;;;;;3.00;83.30;;;;;;5005022;28;19937;-46
2020/12/01 03:03:25;;;;;;;;;;;3.00;83.20;;;;;;5007074;28;20332;-47
2020/12/01 03:05:53;;;;;;;;;;;3.00;83.20;;;;;;4981702;28;19933;-46
2020/12/01 03:08:19;;;;;;;;;;;3.00;83.30;;;;;;5006141;28;19926;-46
2020/12/01 03:10:45;;;;;;;;;;;3.00;83.40;;;;;;4987890;28;20512;-48
2020/12/01 03:13:14;;;;;;;;;;;3.00;83.30;;;;;;5003750;28;19940;-47
2020/12/01 03:15:41;;;;;;;;;;;3.00;83.40;;;;;;5001933;28;19933;-46
2020/12/01 03:18:08;;;;;;;;;;;3.00;83.40;;;;;;4999938;28;19963;-46
2020/12/01 03:20:34;;;;;;;;;;;3.00;83.50;;;;;;5001199;28;20302;-47
2020/12/01 03:23:00;;;;;;;;;;;3.00;83.50;;;;;;5004256;28;19929;-47
2020/12/01 03:25:26;;;;;;;;;;;3.00;83.30;;;;;;4999778;28;19933;-46
2020/12/01 03:27:52;;;;;;;;;;;3.00;83.30;;;;;;5001086;28;19929;-48
2020/12/01 03:30:18;;;;;;;;;;;3.00;83.30;;;;;;5003798;28;20378;-45
2020/12/01 03:32:45;;;;;;;;;;;2.90;83.10;;;;;;5006925;28;19931;-46
2020/12/01 03:35:11;;;;;;;;;;;2.90;83.40;;;;;;5004655;28;19960;-46
2020/12/01 03:37:37;;;;;;;;;;;2.80;83.50;;;;;;5001553;28;19932;-46
2020/12/01 03:40:03;;;;;;;;;;;2.80;83.60;;;;;;4992051;28;20406;-46
2020/12/01 03:42:32;;;;;;;;;;;2.80;83.80;;;;;;4998461;28;19929;-45
2020/12/01 03:44:58;;;;;;;;;;;2.90;83.70;;;;;;4987962;28;19936;-44
2020/12/01 03:47:24;;;;;;;;;;;2.90;83.60;;;;;;5002692;28;19933;-44
2020/12/01 03:49:50;;;;;;;;;;;2.90;83.60;;;;;;4987801;28;19926;-46
2020/12/01 03:52:16;;;;;;;;;;;2.90;83.50;;;;;;4987219;28;20400;-46
2020/12/01 03:54:43;;;;;;;;;;;2.90;83.60;;;;;;5005071;28;19933;-47
2020/12/01 03:57:09;;;;;;;;;;;2.90;83.40;;;;;;5006365;28;19930;-47
2020/12/01 03:59:35;;;;;;;;;;;2.80;83.40;;;;;;5006268;28;19925;-46
2020/12/01 04:02:01;;;;;;;;;;;2.90;83.70;;;;;;4990322;28;19941;-46
2020/12/01 04:04:29;;;;;;;;;;;2.90;83.60;;;;;;5004149;28;19926;-48
2020/12/01 04:06:58;;;;;;;;;;;2.90;83.50;;;;;;4994451;28;19932;-43
2020/12/01 04:09:24;;;;;;;;;;;2.90;83.60;;;;;;4971877;28;19971;-47
2020/12/01 04:11:51;;;;;;;;;;;2.90;83.60;;;;;;5004505;28;19975;-47
2020/12/01 04:14:17;;;;;;;;;;;3.00;83.60;;;;;;5004506;28;19936;-46
2020/12/01 04:16:44;;;;;;;;;;;3.00;83.60;;;;;;4990405;28;19933;-45
2020/12/01 04:19:10;;;;;;;;;;;3.00;83.50;;;;;;4989044;28;19929;-44
2020/12/01 04:21:36;;;;;;;;;;;3.00;83.50;;;;;;4987384;28;19939;-46
2020/12/01 04:24:03;;;;;;;;;;;3.00;83.50;;;;;;4981805;28;19929;-46
2020/12/01 04:26:29;;;;;;;;;;;3.00;83.60;;;;;;5007401;28;19934;-47
2020/12/01 04:28:57;;;;;;;;;;;3.10;83.50;;;;;;5005345;28;20365;-47
2020/12/01 04:31:26;;;;;;;;;;;3.10;83.50;;;;;;4997780;28;19929;-46
2020/12/01 04:33:52;;;;;;;;;;;3.10;83.50;;;;;;4990326;28;19937;-45
2020/12/01 04:36:18;;;;;;;;;;;3.10;83.40;;;;;;5004618;28;19931;-46
2020/12/01 04:38:44;;;;;;;;;;;3.10;83.40;;;;;;5005954;28;19935;-46
2020/12/01 04:41:11;;;;;;;;;;;3.10;83.40;;;;;;4998052;28;19933;-44
2020/12/01 04:43:39;;;;;;;;;;;3.00;83.50;;;;;;5005423;28;19925;-47
2020/12/01 04:46:11;;;;;;;;;;;3.00;83.50;;;;;;5002433;28;19933;-45
2020/12/01 04:49:06;;;;;;;;;;;3.00;83.40;;;;;;5001886;28;19933;-46
2020/12/01 04:51:32;;;;;;;;;;;3.00;83.30;;;;;;4988731;28;19937;-47
2020/12/01 04:54:12;;;;;;;;;;;3.10;83.30;;;;;;5005883;28;19944;-45
2020/12/01 04:56:41;;;;;;;;;;;3.10;83.30;;;;;;5001823;28;19929;-47
2020/12/01 04:59:13;;;;;;;;;;;3.10;83.30;;;;;;5005179;28;20328;-46
2020/12/01 05:01:54;;;;;;;;;;;3.10;83.30;;;;;;5003357;28;19940;-47
2020/12/01 05:04:36;;;;;;;;;;;3.10;83.30;;;;;;5005534;28;20416;-44
2020/12/01 05:07:17;;;;;;;;;;;3.20;83.30;;;;;;5004182;28;19935;-47
2020/12/01 05:09:45;;;;;;;;;;;3.20;83.20;;;;;;5004480;28;20381;-47
2020/12/01 05:12:14;;;;;;;;;;;3.20;83.20;;;;;;5004976;28;20389;-45
2020/12/01 05:14:45;;;;;;;;;;;3.20;83.10;;;;;;5001755;28;20472;-45
2020/12/01 05:17:17;;;;;;;;;;;3.20;83.20;;;;;;5004502;28;19933;-46
2020/12/01 05:19:44;;;;;;;;;;;3.20;83.20;;;;;;5004088;28;20149;-46
2020/12/01 05:22:12;;;;;;;;;;;3.20;83.10;;;;;;4998657;28;20812;-46
2020/12/01 05:24:43;;;;;;;;;;;3.20;83.10;;;;;;5002673;28;19956;-46
2020/12/01 05:27:26;;;;;;;;;;;3.20;83.20;;;;;;5001784;28;19932;-45
2020/12/01 05:29:54;;;;;;;;;;;3.20;83.10;;;;;;4998862;28;20024;-46
2020/12/01 05:32:24;;;;;;;;;;;3.20;83.10;;;;;;5002580;28;19940;-47
2020/12/01 05:34:51;;;;;;;;;;;3.20;83.10;;;;;;5000999;28;19935;-46
2020/12/01 05:37:17;;;;;;;;;;;3.20;83.10;;;;;;4985410;28;19941;-47
2020/12/01 05:39:45;;;;;;;;;;;3.20;83.10;;;;;;4996709;28;19933;-46
2020/12/01 05:42:20;;;;;;;;;;;3.20;83.10;;;;;;4992485;28;20186;-44
2020/12/01 05:44:57;;;;;;;;;;;3.20;83.10;;;;;;4991363;28;20317;-47
2020/12/01 05:47:32;;;;;;;;;;;3.20;83.10;;;;;;5002867;28;20317;-47
2020/12/01 05:50:18;;;;;;;;;;;3.20;83.10;;;;;;5003967;28;19936;-45
2020/12/01 05:52:48;;;;;;;;;;;3.30;83.00;;;;;;5005286;28;19936;-46
2020/12/01 05:55:20;;;;;;;;;;;3.30;83.00;;;;;;5003941;28;19932;-46
2020/12/01 05:58:00;;;;;;;;;;;3.30;83.00;;;;;;5003365;28;20288;-46
2020/12/01 06:00:29;;;;;;;;;;;3.30;83.10;;;;;;5002228;28;19934;-46
2020/12/01 06:02:55;;;;;;;;;;;3.30;83.10;;;;;;5005912;28;19929;-46
2020/12/01 06:05:22;;;;;;;;;;;3.30;83.10;;;;;;5004188;28;19926;-47
2020/12/01 06:07:49;;;;;;;;;;;3.30;83.10;;;;;;5002786;28;20340;-44
2020/12/01 06:10:25;;;;;;;;;;;3.30;83.10;;;;;;5009965;28;19929;-47
2020/12/01 06:13:14;;;;;;;;;;;3.30;83.10;;;;;;4997410;28;19940;-45
2020/12/01 06:15:48;;;;;;;;;;;3.30;83.10;;;;;;4963959;28;19933;-45
2020/12/01 06:18:18;;;;;;;;;;;3.30;83.10;;;;;;5004135;28;19929;-47
2020/12/01 06:20:56;;;;;;;;;;;3.30;83.10;;;;;;5006817;28;19940;-47
2020/12/01 06:23:42;;;;;;;;;;;3.30;83.00;;;;;;5010507;28;19925;-44
2020/12/01 06:26:18;;;;;;;;;;;3.30;82.90;;;;;;4951053;28;19940;-46
2020/12/01 06:29:05;;;;;;;;;;;3.20;83.00;;;;;;5009286;28;19935;-46
2020/12/01 06:31:50;;;;;;;;;;;3.30;83.00;;;;;;5009171;28;20437;-46
2020/12/01 06:34:23;;;;;;;;;;;3.30;83.00;;;;;;5007929;28;20393;-46
2020/12/01 06:37:04;;;;;;;;;;;3.30;83.10;;;;;;5005615;28;19925;-46
2020/12/01 06:39:45;;;;;;;;;;;3.30;83.10;;;;;;5006134;28;20400;-46
2020/12/01 06:42:30;;;;;;;;;;;3.30;83.10;;;;;;5007933;28;19948;-46
2020/12/01 06:44:58;;;;;;;;;;;3.30;83.00;;;;;;5007662;28;20592;-47
2020/12/01 06:47:29;;;;;;;;;;;3.30;83.00;;;;;;5007748;28;19925;-45
2020/12/01 06:49:58;;;;;;;;;;;3.30;83.10;;;;;;5005390;28;19925;-47
2020/12/01 06:52:24;;;;;;;;;;;3.30;83.00;;;;;;5007286;28;19930;-46
2020/12/01 06:54:57;;;;;;;;;;;3.30;83.00;;;;;;5005555;28;20270;-46
2020/12/01 06:57:26;;;;;;;;;;;3.30;83.00;;;;;;5006513;28;19936;-47
2020/12/01 06:59:52;;;;;;;;;;;3.30;83.10;;;;;;5003458;28;20407;-47
2020/12/01 07:02:23;;;;;;;;;;;3.30;83.10;;;;;;5001963;28;19935;-47
2020/12/01 07:04:49;;;;;;;;;;;3.30;83.00;;;;;;4988534;28;19925;-48
2020/12/01 07:07:21;;;;;;;;;;;3.30;83.00;;;;;;5006374;28;19933;-48
2020/12/01 07:09:48;;;;;;;;;;;3.30;83.00;;;;;;5003539;28;19940;-45
2020/12/01 07:12:15;;;;;;;;;;;3.40;83.00;;;;;;5007025;28;19933;-47
2020/12/01 07:14:41;;;;;;;;;;;3.30;83.00;;;;;;5005822;28;19929;-46
2020/12/01 07:17:19;;;;;;;;;;;3.40;83.00;;;;;;5008703;28;19932;-47
2020/12/01 07:19:59;;;;;;;;;;;3.40;83.00;;;;;;4986553;28;19940;-48
2020/12/01 07:22:30;;;;;;;;;;;3.40;83.00;;;;;;5005381;28;19929;-46
2020/12/01 07:25:10;;;;;;;;;;;3.40;83.10;;;;;;5006260;28;19933;-47
2020/12/01 07:27:51;;;;;;;;;;;3.40;83.10;;;;;;5005530;28;19929;-46
2020/12/01 07:30:20;;;;;;;;;;;3.40;83.00;;;;;;5007012;28;19933;-46
2020/12/01 07:32:50;;;;;;;;;;;3.40;83.10;;;;;;5005606;28;20369;-47
2020/12/01 07:35:34;;;;;;;;;;;3.40;83.10;;;;;;5005204;28;20390;-49
2020/12/01 07:38:04;;;;;;;;;;;3.40;83.10;;;;;;5005524;28;19937;-48
2020/12/01 07:40:31;;;;;;;;;;;3.40;83.10;;;;;;4987846;28;20425;-48
2020/12/01 07:43:02;;;;;;;;;;;3.40;83.10;;;;;;5007594;28;19933;-48
2020/12/01 07:45:29;;;;;;;;;;;3.40;83.10;;;;;;5006325;28;19933;-45
2020/12/01 07:47:59;;;;;;;;;;;3.40;83.10;;;;;;5004825;28;19936;-47
2020/12/01 07:50:26;;;;;;;;;;;3.40;83.10;;;;;;5007599;28;19936;-45
2020/12/01 07:52:55;;;;;;;;;;;3.40;83.20;;;;;;5006761;28;20300;-47
2020/12/01 07:55:38;;;;;;;;;;;3.40;83.20;;;;;;5005556;28;19926;-47
2020/12/01 07:58:06;;;;;;;;;;;3.40;83.20;;;;;;5003514;28;19934;-44
2020/12/01 08:00:33;;;;;;;;;;;3.40;83.20;;;;;;5001891;28;19929;-47
2020/12/01 08:03:11;;;;;;;;;;;3.40;83.30;;;;;;5004966;28;20348;-44
2020/12/01 08:05:37;;;;;;;;;;;3.40;83.30;;;;;;5003629;28;19935;-47
2020/12/01 08:08:03;;;;;;;;;;;3.40;83.20;;;;;;4989264;28;19976;-45
2020/12/01 08:10:29;;;;;;;;;;;3.40;83.20;;;;;;5005266;28;19944;-45
2020/12/01 08:12:59;;;;;;;;;;;3.50;83.30;;;;;;5006982;28;19929;-47
2020/12/01 08:15:28;;;;;;;;;;;3.50;83.40;;;;;;5006850;28;20430;-45
2020/12/01 08:17:55;;;;;;;;;;;3.50;83.40;;;;;;5003804;28;19925;-45
2020/12/01 08:20:25;;;;;;;;;;;3.50;83.30;;;;;;5002440;28;19949;-48
2020/12/01 08:22:58;;;;;;;;;;;3.50;83.10;;;;;;5004419;28;20429;-47
2020/12/01 08:25:40;;;;;;;;;;;3.50;83.20;;;;;;5006081;28;20288;-47
2020/12/01 08:28:06;;;;;;;;;;;3.50;83.20;;;;;;5004652;28;19933;-47
2020/12/01 08:30:43;;;;;;;;;;;3.50;83.10;;;;;;5004969;28;19930;-46
2020/12/01 08:33:28;;;;;;;;;;;3.50;83.30;;;;;;5005853;28;19926;-47
2020/12/01 08:36:01;;;;;;;;;;;3.50;83.30;;;;;;4999935;28;19929;-47
2020/12/01 08:38:41;;;;;;;;;;;3.50;83.40;;;;;;5005702;28;19933;-47
2020/12/01 08:41:07;;;;;;;;;;;3.50;83.40;;;;;;5004436;28;19933;-47
2020/12/01 08:43:42;;;;;;;;;;;3.50;83.50;;;;;;5005058;28;20369;-47
2020/12/01 08:46:29;;;;;;;;;;;3.50;83.70;;;;;;4986390;28;19933;-46
2020/12/01 08:49:06;;;;;;;;;;;3.50;83.80;;;;;;5004664;28;19933;-48
2020/12/01 08:51:35;;;;;;;;;;;3.50;83.80;;;;;;5005031;28;19936;-45
2020/12/01 08:54:13;;;;;;;;;;;3.60;83.90;;;;;;5003362;28;19925;-48
2020/12/01 08:56:39;;;;;;;;;;;3.60;83.80;;;;;;5002272;28;20073;-47
2020/12/01 08:59:08;;;;;;;;;;;3.60;83.80;;;;;;5003048;28;19934;-47
2020/12/01 09:01:38;;;;;;;;;;;3.70;83.80;;;;;;5003189;28;19929;-47
2020/12/01 09:04:04;;;;;;;;;;;3.70;83.80;;;;;;5003316;28;19995;-47
2020/12/01 09:06:34;;;;;;;;;;;3.70;83.60;;;;;;5002276;28;19929;-46
2020/12/01 09:09:06;;;;;;;;;;;3.70;83.50;;;;;;5005403;28;19929;-47
2020/12/01 09:11:44;;;;;;;;;;;3.70;83.50;;;;;;5002361;28;19936;-47
2020/12/01 09:14:41;;;;;;;;;;;3.70;83.40;;;;;;5002766;28;19937;-45
2020/12/01 09:18:01;;;;;;;;;;;3.70;83.50;;;;;;5002892;28;20392;-48
2020/12/01 09:23:13;;;;;;;;;;;3.70;83.50;;;;;;5002681;28;19933;-47
2020/12/01 09:25:41;;;;;;;;;;;3.70;83.40;;;;;;5002502;28;20391;-46
2020/12/01 09:28:27;;;;;;;;;;;3.80;83.30;;;;;;5001294;28;19926;-47
2020/12/01 09:30:59;;;;;;;;;;;3.80;83.40;;;;;;5004171;28;19940;-44
2020/12/01 09:33:25;;;;;;;;;;;3.80;83.30;;;;;;4990842;28;20003;-46
2020/12/01 09:35:52;;;;;;;;;;;3.80;83.20;;;;;;4989743;28;19930;-46
2020/12/01 09:38:20;;;;;;;;;;;3.80;83.20;;;;;;4985983;28;19929;-48
2020/12/01 09:40:48;;;;;;;;;;;3.80;83.10;;;;;;4964588;28;20581;-47
2020/12/01 09:45:57;;;;;;;;;;;3.80;83.10;;;;;;4990387;28;19936;-45
2020/12/01 09:48:30;;;;;;;;;;;3.80;83.10;;;;;;4988619;28;20390;-46
2020/12/01 09:50:58;;;;;;;;;;;3.80;83.00;;;;;;4984614;28;19933;-45
2020/12/01 09:54:18;;;;;;;;;;;3.90;83.10;;;;;;4992791;28;20024;-47
2020/12/01 10:13:10;;;;;;;;;;;4.00;83.60;;;;;;4987172;28;19940;-47
2020/12/01 10:26:36;;;;;;;;;;;4.10;83.50;;;;;;4979356;28;20600;-47
2020/12/01 10:34:25;;;;;;;;;;;4.10;83.10;;;;;;4986174;28;19933;-46
2020/12/01 10:36:53;;;;;;;;;;;4.10;83.00;;;;;;4990060;28;19936;-45
2020/12/01 10:39:22;;;;;;;;;;;4.10;82.90;;;;;;4981975;28;19929;-47
2020/12/01 10:41:50;;;;;;;;;;;4.10;82.80;;;;;;4976481;28;19929;-44
2020/12/01 10:44:18;;;;;;;;;;;4.20;82.90;;;;;;4980851;28;19935;-45
2020/12/01 10:46:47;;;;;;;;;;;4.20;82.80;;;;;;4977553;28;20016;-44
2020/12/01 10:49:19;;;;;;;;;;;4.20;82.80;;;;;;4982550;28;19929;-46
2020/12/01 10:51:49;;;;;;;;;;;4.20;82.90;;;;;;4985434;28;19940;-47
2020/12/01 10:54:17;;;;;;;;;;;4.20;82.90;;;;;;4982318;28;19928;-44
2020/12/01 10:56:48;;;;;;;;;;;4.20;82.80;;;;;;4979416;28;20343;-44
2020/12/01 10:59:16;;;;;;;;;;;4.20;82.80;;;;;;4972070;28;19926;-46
2020/12/01 11:01:45;;;;;;;;;;;4.30;82.80;;;;;;4973282;28;20005;-47
2020/12/01 11:04:12;;;;;;;;;;;4.30;82.70;;;;;;4982363;28;20040;-47
2020/12/01 11:06:40;;;;;;;;;;;4.30;82.70;;;;;;4984489;28;20429;-46
2020/12/01 11:09:08;;;;;;;;;;;4.30;82.80;;;;;;4985799;28;19933;-45
2020/12/01 11:11:36;;;;;;;;;;;4.30;82.80;;;;;;4991338;28;19932;-46
2020/12/01 11:14:05;;;;;;;;;;;4.30;82.70;;;;;;4985119;28;20394;-46
2020/12/01 11:16:34;;;;;;;;;;;4.30;82.70;;;;;;4978018;28;21555;-46
2020/12/01 11:19:04;;;;;;;;;;;4.30;82.60;;;;;;4977018;28;19997;-46
2020/12/01 11:21:33;;;;;;;;;;;4.30;82.70;;;;;;4985284;28;19929;-45
2020/12/01 11:24:01;;;;;;;;;;;4.40;82.70;;;;;;4980551;28;19934;-47
2020/12/01 11:26:28;;;;;;;;;;;4.40;82.80;;;;;;4982485;28;20034;-44
2020/12/01 11:28:56;;;;;;;;;;;4.40;82.80;;;;;;4977385;28;20372;-46
2020/12/01 11:31:23;;;;;;;;;;;4.40;82.70;;;;;;4980530;28;20377;-46
2020/12/01 11:33:59;;;;;;;;;;;4.40;82.70;;;;;;4985665;28;19941;-46
2020/12/01 11:36:27;;;;;;;;;;;4.40;82.80;;;;;;4977117;28;19932;-47
2020/12/01 11:38:54;;;;;;;;;;;4.40;82.80;;;;;;4988616;28;19929;-44
2020/12/01 11:41:22;;;;;;;;;;;4.40;82.90;;;;;;4985581;28;19951;-46
2020/12/01 11:43:49;;;;;;;;;;;4.40;82.80;;;;;;4982070;28;19933;-45
2020/12/01 11:46:17;;;;;;;;;;;4.40;82.80;;;;;;4989668;28;19937;-45
2020/12/01 11:48:44;;;;;;;;;;;4.40;82.70;;;;;;4984327;28;20009;-45
2020/12/01 11:51:13;;;;;;;;;;;4.40;82.80;;;;;;4984827;28;19930;-47
2020/12/01 11:53:41;;;;;;;;;;;4.40;82.70;;;;;;4980645;28;20278;-44
2020/12/01 11:56:08;;;;;;;;;;;4.40;82.70;;;;;;4987604;28;19964;-45
2020/12/01 11:58:36;;;;;;;;;;;4.50;82.50;;;;;;4986191;28;19937;-45
2020/12/01 12:01:04;;;;;;;;;;;4.50;82.70;;;;;;4989007;28;19925;-46
2020/12/01 12:03:31;;;;;;;;;;;4.50;82.80;;;;;;4985200;28;19934;-45
2020/12/01 12:05:59;;;;;;;;;;;4.60;82.80;;;;;;4975251;28;19937;-44
2020/12/01 12:08:27;;;;;;;;;;;4.60;82.80;;;;;;4996425;28;19929;-45
2020/12/01 12:10:57;;;;;;;;;;;4.60;82.80;;;;;;4986026;28;19965;-45
2020/12/01 12:13:27;;;;;;;;;;;4.60;83.00;;;;;;4991840;28;19925;-46
2020/12/01 12:15:54;;;;;;;;;;;4.60;83.00;;;;;;4980922;28;19961;-43
2020/12/01 12:18:21;;;;;;;;;;;4.60;83.00;;;;;;4979740;28;19983;-46
2020/12/01 12:20:48;;;;;;;;;;;4.60;83.10;;;;;;4991930;28;19987;-47
2020/12/01 12:23:16;;;;;;;;;;;4.60;83.20;;;;;;4976448;28;19960;-46
2020/12/01 12:25:45;;;;;;;;;;;4.60;83.10;;;;;;4987102;28;19933;-47
2020/12/01 12:28:12;;;;;;;;;;;4.60;83.10;;;;;;4993142;28;20019;-46
2020/12/01 12:30:42;;;;;;;;;;;4.60;83.20;;;;;;4990566;28;20032;-47
2020/12/01 12:33:09;;;;;;;;;;;4.60;83.10;;;;;;4991584;28;19929;-46
2020/12/01 12:35:36;;;;;;;;;;;4.60;83.10;;;;;;4997006;28;19929;-47
2020/12/01 12:38:03;;;;;;;;;;;4.60;83.10;;;;;;4987641;28;19979;-46
2020/12/01 12:40:30;;;;;;;;;;;4.60;83.20;;;;;;4977438;28;19929;-45
2020/12/01 12:42:57;;;;;;;;;;;4.60;83.20;;;;;;4985762;28;19933;-47
2020/12/01 12:45:24;;;;;;;;;;;4.60;83.30;;;;;;4973090;28;19931;-44
2020/12/01 12:47:52;;;;;;;;;;;4.60;83.40;;;;;;4969051;28;19933;-47
2020/12/01 12:50:19;;;;;;;;;;;4.60;83.40;;;;;;4964708;28;19936;-47
2020/12/01 12:52:46;;;;;;;;;;;4.60;83.50;;;;;;4971010;28;21784;-44
2020/12/01 12:55:13;;;;;;;;;;;4.60;83.50;;;;;;4973119;28;19957;-46
2020/12/01 12:57:41;;;;;;;;;;;4.60;83.50;;;;;;4959808;28;19935;-45
2020/12/01 13:00:10;;;;;;;;;;;4.60;83.50;;;;;;4969482;28;19933;-44
2020/12/01 13:02:37;;;;;;;;;;;4.60;83.50;;;;;;4981083;28;19925;-47
2020/12/01 13:05:04;;;;;;;;;;;4.70;83.40;;;;;;4988898;28;19979;-47
2020/12/01 13:07:36;;;;;;;;;;;4.70;83.30;;;;;;4973092;28;19929;-47
2020/12/01 13:10:04;;;;;;;;;;;4.70;83.20;;;;;;4985553;28;19936;-46
2020/12/01 13:12:32;;;;;;;;;;;4.60;83.20;;;;;;4975540;28;19952;-46
2020/12/01 13:14:58;;;;;;;;;;;4.60;83.10;;;;;;4985946;28;19929;-45
2020/12/01 13:17:26;;;;;;;;;;;4.60;83.10;;;;;;4974405;28;20386;-46
2020/12/01 13:19:56;;;;;;;;;;;4.60;83.20;;;;;;4986847;28;19983;-46
2020/12/01 13:22:23;;;;;;;;;;;4.60;83.30;;;;;;4985846;28;19960;-46
2020/12/01 13:24:51;;;;;;;;;;;4.60;83.30;;;;;;4972274;28;19933;-46
2020/12/01 13:27:18;;;;;;;;;;;4.60;83.30;;;;;;4981587;28;20408;-44
2020/12/01 13:29:45;;;;;;;;;;;4.60;83.40;;;;;;4970262;28;20373;-45
2020/12/01 13:32:13;;;;;;;;;;;4.60;83.50;;;;;;4974201;28;19940;-45
2020/12/01 13:34:43;;;;;;;;;;;4.60;83.50;;;;;;4976925;28;19939;-44
2020/12/01 13:37:10;;;;;;;;;;;4.60;83.60;;;;;;4985910;28;19933;-45
2020/12/01 13:39:38;;;;;;;;;;;4.60;83.70;;;;;;4977145;28;20405;-45
2020/12/01 13:42:05;;;;;;;;;;;4.60;83.70;;;;;;4988122;28;20352;-45
2020/12/01 13:44:34;;;;;;;;;;;4.60;83.70;;;;;;4986561;28;20389;-46
2020/12/01 13:47:03;;;;;;;;;;;4.60;83.80;;;;;;4975907;28;19933;-47
2020/12/01 13:49:30;;;;;;;;;;;4.60;83.80;;;;;;4980580;28;19940;-46
2020/12/01 13:51:58;;;;;;;;;;;4.60;83.80;;;;;;4979277;28;20548;-43
2020/12/01 13:54:26;;;;;;;;;;;4.70;83.80;;;;;;4979150;28;20397;-46
2020/12/01 13:56:53;;;;;;;;;;;4.70;83.80;;;;;;4981255;28;20058;-46
2020/12/01 13:59:22;;;;;;;;;;;4.70;83.70;;;;;;4984675;28;19929;-45
2020/12/01 14:01:59;;;;;;;;;;;4.70;83.70;;;;;;4976425;28;20002;-46
2020/12/01 14:04:28;;;;;;;;;;;4.70;83.70;;;;;;4985047;28;20055;-45
2020/12/01 14:06:55;;;;;;;;;;;4.70;83.70;;;;;;4982301;28;19929;-46
2020/12/01 14:09:23;;;;;;;;;;;4.70;83.60;;;;;;4981833;28;20015;-46
2020/12/01 14:11:53;;;;;;;;;;;4.70;83.70;;;;;;4986217;28;19925;-46
2020/12/01 14:14:21;;;;;;;;;;;4.70;83.80;;;;;;4982209;28;19934;-46
2020/12/01 14:16:48;;;;;;;;;;;4.70;83.80;;;;;;4981827;28;20417;-46
2020/12/01 14:19:20;;;;;;;;;;;4.70;83.80;;;;;;4979908;28;19929;-43
2020/12/01 14:21:47;;;;;;;;;;;4.60;83.80;;;;;;4981613;28;19933;-46
2020/12/01 14:24:14;;;;;;;;;;;4.60;83.90;;;;;;4982515;28;20389;-45
2020/12/01 14:26:42;;;;;;;;;;;4.70;83.90;;;;;;4986887;28;19930;-45
2020/12/01 14:29:09;;;;;;;;;;;4.60;83.90;;;;;;4983811;28;20014;-45
2020/12/01 14:31:37;;;;;;;;;;;4.70;83.90;;;;;;4989174;28;20012;-47
2020/12/01 14:34:04;;;;;;;;;;;4.70;83.90;;;;;;4980494;28;20374;-46
2020/12/01 14:36:33;;;;;;;;;;;4.60;83.80;;;;;;4984519;28;19940;-46
2020/12/01 14:39:00;;;;;;;;;;;4.70;83.80;;;;;;4988539;28;20019;-45
2020/12/01 14:41:28;;;;;;;;;;;4.70;83.80;;;;;;4989714;28;19956;-45
2020/12/01 14:43:54;;;;;;;;;;;4.60;83.90;;;;;;4994412;28;19925;-45
2020/12/01 14:46:41;;;;;;;;;;;4.60;83.90;;;;;;4993092;28;19933;-43
2020/12/01 14:49:16;;;;;;;;;;;4.60;83.90;;;;;;4992441;28;19925;-45
2020/12/01 14:52:13;;;;;;;;;;;4.60;83.90;;;;;;4990602;28;20416;-46
2020/12/01 14:54:52;;;;;;;;;;;4.60;83.90;;;;;;4984993;28;19941;-45
2020/12/01 14:57:45;;;;;;;;;;;4.60;83.80;;;;;;4993029;28;20030;-46
2020/12/01 15:00:12;;;;;;;;;;;4.60;83.90;;;;;;4964567;28;19929;-44
2020/12/01 15:02:48;;;;;;;;;;;4.60;83.90;;;;;;4992384;28;19979;-47
2020/12/01 15:05:16;;;;;;;;;;;4.60;83.90;;;;;;4995342;28;20290;-45
2020/12/01 15:07:57;;;;;;;;;;;4.60;83.90;;;;;;4998927;28;19933;-44
2020/12/01 15:10:42;;;;;;;;;;;4.60;83.90;;;;;;4994196;28;19968;-45
2020/12/01 15:13:09;;;;;;;;;;;4.60;83.90;;;;;;4998099;28;20026;-45
2020/12/01 15:15:49;;;;;;;;;;;4.60;83.90;;;;;;4994498;28;19944;-45
2020/12/01 15:18:18;;;;;;;;;;;4.60;83.90;;;;;;4994424;28;20012;-45
2020/12/01 15:20:45;;;;;;;;;;;4.60;83.80;;;;;;4995575;28;19940;-45
2020/12/01 15:23:26;;;;;;;;;;;4.60;83.90;;;;;;4996130;28;19933;-43
2020/12/01 15:25:54;;;;;;;;;;;4.60;83.90;;;;;;4998251;28;20012;-45